Time;durP1;ratioP1;P1;durP2;ratioP2;P2;SDS_P1;SDS_P2;PMS_P1;PMS_P2;Temp;Humidity;BMP_temperature;BMP_pressure;BME280_temperature;BME280_humidity;BME280_pressure;Samples;Min_cycle;Max_cycle;Signal;HPM_P1;HPM_P2
2021/07/15 00:00:47;;;;;;;19.25;17.55;;;31.00;72.80;;;;;;5050331;28;20132;-65
2021/07/15 00:03:17;;;;;;;19.10;17.50;;;31.00;72.90;;;;;;5049718;28;20064;-65
2021/07/15 00:05:43;;;;;;;19.67;17.98;;;31.00;72.90;;;;;;5035708;28;20140;-65
2021/07/15 00:08:11;;;;;;;17.50;16.00;;;31.00;72.80;;;;;;5050093;28;20132;-66
2021/07/15 00:10:44;;;;;;;17.92;16.33;;;31.00;72.90;;;;;;5050430;28;20060;-65
2021/07/15 00:13:11;;;;;;;19.42;17.63;;;31.00;72.90;;;;;;5050209;28;20130;-65
2021/07/15 00:15:42;;;;;;;18.63;17.13;;;31.00;72.80;;;;;;5050163;28;20120;-65
2021/07/15 00:18:10;;;;;;;18.58;16.98;;;31.00;72.90;;;;;;5049903;28;20059;-65
2021/07/15 00:20:45;;;;;;;19.88;18.08;;;31.00;72.80;;;;;;5049909;28;20144;-66
2021/07/15 00:23:12;;;;;;;18.98;17.27;;;31.00;72.90;;;;;;5049817;28;20128;-65
2021/07/15 00:25:39;;;;;;;18.23;16.63;;;31.00;72.80;;;;;;5049898;28;20144;-65
2021/07/15 00:28:07;;;;;;;18.70;17.17;;;31.00;72.80;;;;;;5049911;28;20064;-66
2021/07/15 00:30:33;;;;;;;17.85;16.38;;;31.00;72.80;;;;;;5049969;28;20080;-65
2021/07/15 00:33:00;;;;;;;17.85;16.35;;;31.00;72.80;;;;;;5049512;28;20132;-65
2021/07/15 00:35:30;;;;;;;18.38;16.70;;;31.00;72.80;;;;;;5049920;28;20060;-65
2021/07/15 00:37:56;;;;;;;18.77;17.17;;;31.00;72.80;;;;;;5049633;28;20053;-65
2021/07/15 00:40:22;;;;;;;18.25;16.65;;;31.00;72.80;;;;;;5049518;28;20410;-65
2021/07/15 00:42:48;;;;;;;18.80;17.20;;;31.00;72.80;;;;;;5049206;28;20061;-65
2021/07/15 00:45:18;;;;;;;19.40;17.55;;;31.10;72.90;;;;;;5049409;28;20060;-65
2021/07/15 00:47:48;;;;;;;17.88;16.38;;;31.00;72.80;;;;;;5049476;28;20139;-65
2021/07/15 00:50:18;;;;;;;19.15;17.63;;;31.00;72.80;;;;;;5049501;28;20118;-65
2021/07/15 00:52:45;;;;;;;17.80;16.30;;;31.00;72.80;;;;;;5049176;28;20056;-66
2021/07/15 00:55:32;;;;;;;19.23;17.52;;;31.00;72.80;;;;;;5049099;28;20128;-65
2021/07/15 00:57:59;;;;;;;19.17;17.38;;;31.00;72.80;;;;;;5049377;28;20057;-65
2021/07/15 01:00:25;;;;;;;18.23;16.52;;;31.00;72.70;;;;;;5049242;28;20203;-65
2021/07/15 01:02:53;;;;;;;19.05;17.35;;;31.00;72.80;;;;;;5049005;28;20052;-65
2021/07/15 01:05:30;;;;;;;18.90;17.15;;;31.00;73.40;;;;;;5036018;28;20054;-66
2021/07/15 01:07:56;;;;;;;17.50;16.10;;;31.00;72.90;;;;;;5049049;28;20132;-66
2021/07/15 01:10:25;;;;;;;17.95;16.45;;;31.00;72.80;;;;;;5048843;28;20516;-66
2021/07/15 01:13:19;;;;;;;18.65;16.95;;;31.00;72.80;;;;;;5048991;28;20052;-66
2021/07/15 01:16:08;;;;;;;18.55;16.95;;;31.00;72.80;;;;;;5048925;28;20163;-66
2021/07/15 01:18:37;;;;;;;18.67;16.75;;;31.00;73.00;;;;;;5048777;28;20069;-66
2021/07/15 01:21:31;;;;;;;17.52;16.05;;;31.00;72.80;;;;;;5048934;28;20090;-66
2021/07/15 01:24:39;;;;;;;18.48;16.80;;;31.00;72.70;;;;;;5048826;28;20425;-66
2021/07/15 01:27:38;;;;;;;18.38;16.77;;;31.00;72.70;;;;;;5049006;28;20091;-66
2021/07/15 01:30:10;;;;;;;18.80;17.20;;;31.00;72.80;;;;;;5047189;28;20509;-66
2021/07/15 01:33:15;;;;;;;18.80;17.10;;;31.00;72.70;;;;;;5048456;28;20132;-66
2021/07/15 01:35:47;;;;;;;18.75;17.02;;;31.00;72.80;;;;;;5047658;28;20496;-66
2021/07/15 01:38:15;;;;;;;18.60;16.90;;;31.00;72.70;;;;;;5048581;28;20159;-66
2021/07/15 01:40:56;;;;;;;18.45;16.83;;;31.00;72.70;;;;;;5048506;28;20091;-66
2021/07/15 01:43:37;;;;;;;18.90;17.27;;;31.00;72.80;;;;;;5048434;28;20135;-66
2021/07/15 01:46:05;;;;;;;18.50;16.90;;;31.00;72.80;;;;;;5048407;28;20515;-66
2021/07/15 01:48:32;;;;;;;18.23;16.52;;;31.00;72.80;;;;;;5048474;28;20140;-66
2021/07/15 01:50:59;;;;;;;18.00;16.52;;;31.00;72.80;;;;;;5048366;28;20072;-66
2021/07/15 01:53:25;;;;;;;17.70;16.23;;;31.10;72.90;;;;;;5048298;28;20052;-66
2021/07/15 01:55:54;;;;;;;17.75;16.27;;;31.00;72.90;;;;;;5048218;28;20053;-66
2021/07/15 01:58:22;;;;;;;17.85;16.40;;;31.00;72.80;;;;;;5048120;28;20701;-66
2021/07/15 02:00:49;;;;;;;18.98;17.17;;;31.00;72.80;;;;;;5048147;28;20057;-66
2021/07/15 02:03:16;;;;;;;18.17;16.60;;;31.00;72.80;;;;;;5047916;28;20136;-66
2021/07/15 02:05:43;;;;;;;17.95;16.45;;;31.00;72.90;;;;;;5048155;28;20060;-66
2021/07/15 02:08:10;;;;;;;17.42;16.05;;;31.00;72.90;;;;;;5048010;28;20138;-66
2021/07/15 02:10:37;;;;;;;17.83;16.23;;;31.00;73.10;;;;;;5047987;28;20159;-66
2021/07/15 02:13:07;;;;;;;17.50;15.95;;;31.00;72.90;;;;;;5048373;28;20160;-66
2021/07/15 02:15:35;;;;;;;16.13;14.82;;;31.00;72.90;;;;;;5048077;28;20144;-66
2021/07/15 02:18:02;;;;;;;17.33;15.88;;;31.10;73.10;;;;;;5048360;28;20084;-66
2021/07/15 02:20:29;;;;;;;17.80;16.20;;;31.10;73.00;;;;;;5047743;28;20069;-66
2021/07/15 02:22:58;;;;;;;18.13;16.63;;;31.10;73.00;;;;;;5047843;28;20139;-66
2021/07/15 02:25:25;;;;;;;17.48;15.98;;;31.10;73.00;;;;;;5047814;28;20699;-66
2021/07/15 02:27:54;;;;;;;18.40;16.77;;;31.10;72.90;;;;;;5049268;28;20063;-66
2021/07/15 02:30:21;;;;;;;17.48;15.98;;;31.10;72.90;;;;;;5052176;28;20456;-66
2021/07/15 02:32:55;;;;;;;18.00;16.45;;;31.10;72.80;;;;;;5051858;28;20135;-66
2021/07/15 02:35:21;;;;;;;17.35;15.88;;;31.10;72.90;;;;;;5052044;28;20057;-66
2021/07/15 02:37:51;;;;;;;17.42;15.95;;;31.10;72.80;;;;;;5051770;28;20072;-66
2021/07/15 02:40:18;;;;;;;18.70;16.92;;;31.10;72.80;;;;;;5051868;28;20537;-66
2021/07/15 02:42:45;;;;;;;17.98;16.38;;;31.10;72.80;;;;;;5051699;28;20052;-66
2021/07/15 02:45:17;;;;;;;17.15;15.70;;;31.10;72.80;;;;;;5051658;28;20140;-66
2021/07/15 02:47:45;;;;;;;18.02;16.40;;;31.10;72.80;;;;;;5051816;28;21508;-66
2021/07/15 02:50:14;;;;;;;17.83;16.33;;;31.10;72.70;;;;;;5051519;28;20061;-66
2021/07/15 02:52:41;;;;;;;17.35;15.90;;;31.00;72.60;;;;;;5051533;28;20053;-66
2021/07/15 02:55:11;;;;;;;18.40;16.80;;;31.10;72.70;;;;;;5051314;28;20144;-66
2021/07/15 02:57:43;;;;;;;17.48;16.08;;;31.00;72.60;;;;;;5051393;28;20083;-66
2021/07/15 03:00:18;;;;;;;17.30;15.88;;;31.00;72.70;;;;;;5051294;28;20140;-66
2021/07/15 03:02:56;;;;;;;17.05;15.63;;;31.00;72.70;;;;;;5051249;28;20064;-66
2021/07/15 03:05:34;;;;;;;17.15;15.63;;;31.00;72.60;;;;;;5051106;28;20483;-66
2021/07/15 03:08:08;;;;;;;18.48;16.88;;;31.10;72.80;;;;;;5051642;28;20500;-66
2021/07/15 03:10:35;;;;;;;17.60;16.15;;;31.00;72.80;;;;;;5051429;28;20139;-66
2021/07/15 03:13:09;;;;;;;17.92;16.52;;;31.00;72.70;;;;;;5051249;28;20056;-66
2021/07/15 03:15:36;;;;;;;17.23;15.73;;;31.00;72.90;;;;;;5051121;28;20059;-66
2021/07/15 03:18:05;;;;;;;17.58;16.08;;;31.00;72.80;;;;;;5051435;28;20135;-66
2021/07/15 03:20:35;;;;;;;17.65;16.00;;;31.00;72.90;;;;;;5051111;28;20063;-66
2021/07/15 03:23:05;;;;;;;17.60;16.00;;;31.10;73.00;;;;;;5051151;28;20052;-66
2021/07/15 03:25:34;;;;;;;15.48;14.07;;;31.10;73.10;;;;;;5051176;28;20879;-66
2021/07/15 03:28:03;;;;;;;17.17;15.55;;;31.00;73.40;;;;;;5050737;28;20110;-66
2021/07/15 03:30:30;;;;;;;17.73;16.17;;;31.10;73.50;;;;;;5050967;28;20056;-66
2021/07/15 03:32:56;;;;;;;18.23;16.65;;;31.10;73.20;;;;;;5050785;28;20122;-66
2021/07/15 03:35:23;;;;;;;18.00;16.45;;;31.10;73.00;;;;;;5050744;28;20076;-66
2021/07/15 03:37:50;;;;;;;17.77;16.27;;;31.10;73.00;;;;;;5049366;28;20060;-66
2021/07/15 03:40:21;;;;;;;18.38;16.83;;;31.10;72.80;;;;;;5050497;28;20588;-66
2021/07/15 03:42:48;;;;;;;18.15;16.48;;;31.10;72.70;;;;;;5050929;28;20459;-66
2021/07/15 03:45:16;;;;;;;19.08;17.33;;;31.10;72.70;;;;;;5050278;28;20060;-66
2021/07/15 03:47:43;;;;;;;18.55;16.95;;;31.10;72.70;;;;;;5049340;28;20131;-66
2021/07/15 03:50:10;;;;;;;17.92;16.40;;;31.00;72.50;;;;;;5050546;28;20060;-66
2021/07/15 03:52:38;;;;;;;18.38;16.77;;;31.10;72.60;;;;;;5050315;28;20057;-66
2021/07/15 03:55:06;;;;;;;17.70;16.13;;;31.00;72.50;;;;;;5050678;28;20206;-66
2021/07/15 03:57:33;;;;;;;18.35;16.77;;;31.00;72.60;;;;;;5050236;28;20172;-66
2021/07/15 04:00:00;;;;;;;18.60;16.80;;;31.10;72.60;;;;;;5050533;28;20096;-66
2021/07/15 04:02:29;;;;;;;18.45;16.92;;;31.00;72.50;;;;;;5050281;28;20477;-66
2021/07/15 04:04:57;;;;;;;18.42;16.92;;;31.00;72.50;;;;;;5038937;28;20088;-66
2021/07/15 04:07:27;;;;;;;18.48;16.95;;;31.00;72.50;;;;;;5048437;28;20136;-66
2021/07/15 04:09:55;;;;;;;19.25;17.45;;;31.10;72.60;;;;;;5050160;28;20049;-66
2021/07/15 04:12:22;;;;;;;19.73;17.90;;;31.00;72.50;;;;;;5050012;28;20053;-66
2021/07/15 04:15:00;;;;;;;19.30;17.50;;;31.00;72.60;;;;;;5049983;28;20061;-66
2021/07/15 04:17:34;;;;;;;18.73;17.13;;;31.00;72.60;;;;;;5050137;28;20135;-66
2021/07/15 04:20:03;;;;;;;19.35;17.42;;;31.00;72.60;;;;;;5050159;28;20048;-66
2021/07/15 04:22:29;;;;;;;20.10;18.30;;;31.00;72.60;;;;;;5050069;28;20183;-66
2021/07/15 04:24:57;;;;;;;19.40;17.67;;;31.00;72.50;;;;;;5049614;28;20060;-66
2021/07/15 04:27:24;;;;;;;20.13;18.30;;;31.00;72.60;;;;;;5049860;28;20078;-66
2021/07/15 04:29:59;;;;;;;18.10;16.63;;;31.00;72.60;;;;;;5049659;28;20155;-66
2021/07/15 04:32:29;;;;;;;19.65;17.77;;;31.00;72.60;;;;;;5049542;28;20061;-66
2021/07/15 04:34:57;;;;;;;19.55;17.67;;;31.00;72.60;;;;;;5049550;28;20059;-66
2021/07/15 04:37:23;;;;;;;18.45;16.75;;;31.00;72.60;;;;;;5049791;28;20463;-66
2021/07/15 04:39:50;;;;;;;18.77;17.25;;;31.00;72.60;;;;;;5049636;28;20056;-66
2021/07/15 04:42:18;;;;;;;18.85;17.25;;;31.00;72.50;;;;;;5049386;28;20132;-66
2021/07/15 04:44:45;;;;;;;18.63;17.02;;;31.00;72.60;;;;;;5049433;28;20045;-66
2021/07/15 04:47:13;;;;;;;19.33;17.63;;;31.00;72.50;;;;;;5049331;28;20535;-66
2021/07/15 04:49:40;;;;;;;18.95;17.25;;;31.00;72.50;;;;;;5049543;28;20136;-66
2021/07/15 04:52:10;;;;;;;18.00;16.27;;;31.00;72.50;;;;;;5048968;28;20061;-66
2021/07/15 04:54:40;;;;;;;18.48;16.88;;;31.00;72.60;;;;;;5048986;28;20057;-66
2021/07/15 04:57:10;;;;;;;17.85;16.08;;;31.00;72.60;;;;;;5049024;28;20531;-66
2021/07/15 04:59:38;;;;;;;17.65;16.15;;;31.00;72.50;;;;;;5049198;28;20064;-66
2021/07/15 05:02:05;;;;;;;17.73;16.23;;;31.00;72.60;;;;;;5049174;28;20118;-66
2021/07/15 05:04:32;;;;;;;19.25;17.45;;;31.00;72.50;;;;;;5048955;28;20147;-66
2021/07/15 05:06:58;;;;;;;17.45;15.82;;;31.00;72.50;;;;;;5048978;28;20049;-66
2021/07/15 05:09:24;;;;;;;18.48;16.65;;;31.00;72.50;;;;;;5049384;28;20071;-66
2021/07/15 05:11:51;;;;;;;17.90;16.30;;;31.00;72.50;;;;;;5048865;28;20103;-66
2021/07/15 05:14:17;;;;;;;17.50;16.05;;;31.00;72.50;;;;;;5049044;28;20148;-66
2021/07/15 05:16:42;;;;;;;17.55;16.05;;;31.00;72.50;;;;;;5048834;28;20465;-66
2021/07/15 05:19:09;;;;;;;17.42;16.02;;;31.10;72.70;;;;;;5048954;28;20131;-66
2021/07/15 05:21:35;;;;;;;19.02;17.27;;;31.00;72.60;;;;;;5049026;28;20111;-66
2021/07/15 05:24:01;;;;;;;17.17;15.68;;;31.00;72.50;;;;;;5048683;28;20053;-66
2021/07/15 05:26:27;;;;;;;17.42;15.82;;;31.00;72.60;;;;;;5048699;28;20521;-66
2021/07/15 05:28:54;;;;;;;17.85;16.35;;;31.00;72.60;;;;;;5048403;28;20078;-66
2021/07/15 05:31:21;;;;;;;17.90;16.20;;;31.00;72.60;;;;;;5048690;28;20057;-66
2021/07/15 05:33:48;;;;;;;18.20;16.52;;;31.10;72.60;;;;;;5048624;28;20526;-66
2021/07/15 05:36:18;;;;;;;19.88;17.05;;;31.00;72.50;;;;;;5048625;28;20080;-66
2021/07/15 05:38:44;;;;;;;17.38;15.77;;;31.00;72.50;;;;;;5048610;28;20082;-66
2021/07/15 05:41:11;;;;;;;17.67;16.08;;;31.00;72.50;;;;;;5048248;28;20135;-66
2021/07/15 05:43:37;;;;;;;17.45;15.65;;;31.00;72.50;;;;;;5048428;28;20406;-66
2021/07/15 05:46:04;;;;;;;17.25;15.75;;;31.00;72.60;;;;;;5048534;28;20476;-66
2021/07/15 05:48:30;;;;;;;16.23;14.73;;;31.00;72.50;;;;;;5048196;28;20611;-66
2021/07/15 05:50:56;;;;;;;17.33;15.57;;;31.00;72.40;;;;;;5048269;28;20136;-66
2021/07/15 05:53:22;;;;;;;16.80;15.25;;;31.00;72.40;;;;;;5048065;28;20758;-66
2021/07/15 05:55:48;;;;;;;17.10;15.15;;;31.00;72.60;;;;;;5048496;28;20144;-66
2021/07/15 05:58:15;;;;;;;16.60;15.07;;;31.00;72.40;;;;;;5048172;28;20131;-66
2021/07/15 06:00:44;;;;;;;17.13;15.32;;;31.00;72.50;;;;;;5048289;28;20512;-66
2021/07/15 06:03:12;;;;;;;16.75;15.05;;;31.00;72.40;;;;;;5047177;28;20128;-66
2021/07/15 06:05:40;;;;;;;17.75;16.05;;;31.00;72.40;;;;;;5047886;28;20179;-66
2021/07/15 06:08:07;;;;;;;17.30;15.80;;;31.00;72.40;;;;;;5047996;28;20045;-66
2021/07/15 06:10:34;;;;;;;17.75;16.02;;;31.00;72.40;;;;;;5048077;28;20053;-66
2021/07/15 06:13:00;;;;;;;17.30;15.32;;;31.00;72.40;;;;;;5047856;28;20064;-66
2021/07/15 06:15:26;;;;;;;17.00;15.38;;;31.00;72.40;;;;;;5048176;28;20063;-66
2021/07/15 06:17:52;;;;;;;16.83;15.32;;;31.00;72.30;;;;;;5048171;28;20127;-66
2021/07/15 06:20:18;;;;;;;16.85;15.10;;;31.00;72.40;;;;;;5048285;28;20802;-66
2021/07/15 06:22:45;;;;;;;16.65;15.15;;;31.00;72.40;;;;;;5048185;28;20139;-66
2021/07/15 06:25:13;;;;;;;16.63;15.02;;;31.00;72.30;;;;;;5047718;28;20562;-66
2021/07/15 06:27:41;;;;;;;16.63;14.57;;;31.00;72.40;;;;;;5047962;28;20053;-66
2021/07/15 06:30:11;;;;;;;16.58;15.02;;;31.00;72.30;;;;;;5047923;28;20471;-66
2021/07/15 06:32:37;;;;;;;17.30;14.80;;;31.00;72.30;;;;;;5048045;28;20080;-66
2021/07/15 06:35:05;;;;;;;16.75;15.15;;;31.00;72.30;;;;;;5048475;28;20111;-66
2021/07/15 06:37:36;;;;;;;16.60;14.75;;;31.10;72.30;;;;;;5048434;28;20056;-66
2021/07/15 06:40:11;;;;;;;15.98;14.57;;;31.10;72.40;;;;;;5048262;28;20132;-66
2021/07/15 06:42:37;;;;;;;16.98;15.27;;;31.00;72.30;;;;;;5047959;28;20475;-66
2021/07/15 06:45:06;;;;;;;16.02;14.52;;;31.00;72.30;;;;;;5047740;28;20080;-66
2021/07/15 06:47:32;;;;;;;16.55;15.05;;;31.10;72.30;;;;;;5047671;28;20091;-66
2021/07/15 06:49:58;;;;;;;15.43;13.95;;;31.10;72.20;;;;;;5047787;28;20084;-66
2021/07/15 06:52:29;;;;;;;19.65;15.20;;;31.00;72.20;;;;;;5047796;28;20128;-66
2021/07/15 06:54:57;;;;;;;15.93;14.63;;;31.00;72.20;;;;;;5047804;28;20076;-66
2021/07/15 06:57:24;;;;;;;16.60;15.05;;;31.00;72.20;;;;;;5047675;28;20064;-66
2021/07/15 06:59:50;;;;;;;16.90;15.23;;;31.00;72.20;;;;;;5047395;28;20081;-66
2021/07/15 07:02:16;;;;;;;16.23;14.63;;;31.00;72.20;;;;;;5047616;28;20080;-66
2021/07/15 07:04:42;;;;;;;16.15;14.57;;;31.00;72.20;;;;;;5038200;28;20413;-66
2021/07/15 07:07:08;;;;;;;15.32;13.93;;;31.00;72.20;;;;;;5043866;28;20088;-66
2021/07/15 07:09:34;;;;;;;15.55;14.15;;;31.00;72.20;;;;;;5047762;28;20472;-66
2021/07/15 07:11:59;;;;;;;15.98;14.48;;;31.00;72.10;;;;;;5047516;28;20064;-66
2021/07/15 07:14:25;;;;;;;15.85;14.35;;;31.00;72.20;;;;;;5049576;28;20132;-66
2021/07/15 07:16:51;;;;;;;15.88;14.23;;;31.00;72.30;;;;;;5051253;28;20194;-66
2021/07/15 07:19:17;;;;;;;14.77;13.40;;;31.00;72.30;;;;;;5051319;28;20136;-66
2021/07/15 07:21:43;;;;;;;15.15;13.80;;;31.00;72.20;;;;;;5051455;28;20130;-66
2021/07/15 07:24:10;;;;;;;15.25;13.57;;;31.00;72.20;;;;;;5051098;28;20536;-66
2021/07/15 07:26:36;;;;;;;15.30;13.55;;;31.10;72.30;;;;;;5050966;28;20584;-66
2021/07/15 07:29:02;;;;;;;16.20;14.70;;;31.00;72.20;;;;;;5050947;28;20495;-66
2021/07/15 07:31:28;;;;;;;15.90;14.27;;;31.00;72.80;;;;;;5050903;28;20157;-66
2021/07/15 07:33:54;;;;;;;14.85;13.55;;;31.00;72.10;;;;;;5051081;28;20148;-66
2021/07/15 07:36:20;;;;;;;14.70;13.48;;;31.00;72.20;;;;;;5050808;28;20483;-66
2021/07/15 07:38:46;;;;;;;13.82;12.45;;;31.00;72.20;;;;;;5051020;28;20148;-66
2021/07/15 07:41:12;;;;;;;14.90;13.55;;;31.10;72.40;;;;;;5050606;28;20084;-66
2021/07/15 07:43:38;;;;;;;15.48;13.88;;;31.10;72.40;;;;;;5050469;28;20144;-66
2021/07/15 07:46:05;;;;;;;14.82;13.35;;;31.10;72.30;;;;;;5050391;28;20053;-66
2021/07/15 07:48:31;;;;;;;15.13;13.63;;;31.00;72.40;;;;;;5049515;28;20111;-66
2021/07/15 07:50:58;;;;;;;15.48;13.77;;;31.00;72.30;;;;;;5050474;28;20483;-66
2021/07/15 07:53:25;;;;;;;14.98;13.50;;;31.10;72.50;;;;;;5050469;28;20057;-66
2021/07/15 07:55:52;;;;;;;14.10;12.70;;;31.10;72.50;;;;;;5050394;28;20088;-66
2021/07/15 07:58:19;;;;;;;15.65;14.25;;;31.10;72.50;;;;;;5050432;28;20469;-66
2021/07/15 08:00:45;;;;;;;13.68;11.73;;;31.00;72.40;;;;;;5050223;28;20057;-66
2021/07/15 08:03:11;;;;;;;13.25;12.15;;;31.00;72.50;;;;;;5050225;28;20531;-65
2021/07/15 08:05:41;;;;;;;14.18;12.88;;;31.10;73.00;;;;;;5050074;28;20140;-66
2021/07/15 08:08:07;;;;;;;14.40;13.13;;;31.10;72.70;;;;;;5050327;28;20065;-65
2021/07/15 08:10:33;;;;;;;14.07;12.70;;;31.10;73.00;;;;;;5050895;28;20769;-66
2021/07/15 08:12:59;;;;;;;13.70;12.48;;;31.10;73.10;;;;;;5050026;28;20103;-66
2021/07/15 08:15:25;;;;;;;13.30;12.15;;;31.10;73.00;;;;;;5050009;28;20117;-66
2021/07/15 08:17:51;;;;;;;14.00;12.85;;;31.10;73.00;;;;;;5050403;28;20150;-66
2021/07/15 08:20:19;;;;;;;13.90;12.60;;;31.10;73.30;;;;;;5049607;28;20525;-66
2021/07/15 08:22:45;;;;;;;14.23;12.43;;;31.10;73.20;;;;;;5050058;28;20076;-66
2021/07/15 08:25:13;;;;;;;15.35;13.43;;;31.20;73.10;;;;;;5048733;28;20061;-66
2021/07/15 08:27:39;;;;;;;13.40;12.00;;;31.10;73.00;;;;;;5050091;28;20139;-66
2021/07/15 08:30:07;;;;;;;13.55;12.20;;;31.10;73.10;;;;;;5049738;28;20053;-66
2021/07/15 08:32:34;;;;;;;14.50;13.20;;;31.10;73.40;;;;;;5049606;28;20424;-65
2021/07/15 08:35:00;;;;;;;14.88;13.55;;;31.10;73.10;;;;;;5048497;28;20443;-66
2021/07/15 08:37:26;;;;;;;14.98;13.45;;;31.10;73.00;;;;;;5049574;28;20072;-65
2021/07/15 08:39:52;;;;;;;13.10;11.90;;;31.10;73.00;;;;;;5048425;28;20413;-66
2021/07/15 08:42:19;;;;;;;13.93;12.57;;;31.10;73.10;;;;;;5049376;28;20127;-65
2021/07/15 08:44:45;;;;;;;12.98;11.68;;;31.10;73.10;;;;;;5049358;28;20067;-65
2021/07/15 08:47:15;;;;;;;13.85;12.48;;;31.10;73.10;;;;;;5049204;28;20144;-65
2021/07/15 08:49:41;;;;;;;14.98;13.30;;;31.10;73.20;;;;;;5049120;28;20132;-65
2021/07/15 08:52:07;;;;;;;15.30;13.85;;;31.10;73.10;;;;;;5049260;28;20663;-65
2021/07/15 08:57:18;;;;;;;15.88;14.23;;;31.10;73.00;;;;;;5049076;28;20128;-65
2021/07/15 08:59:44;;;;;;;16.08;14.30;;;31.10;73.10;;;;;;5049123;28;20206;-66
2021/07/15 09:02:17;;;;;;;16.05;14.65;;;31.10;72.90;;;;;;5048871;28;20049;-65
2021/07/15 09:04:44;;;;;;;15.32;13.90;;;31.10;72.90;;;;;;5039253;28;20065;-65
2021/07/15 09:07:11;;;;;;;16.08;14.43;;;31.10;72.90;;;;;;5045386;28;20068;-65
2021/07/15 09:09:37;;;;;;;15.82;14.23;;;31.10;72.80;;;;;;5049047;28;20080;-65
2021/07/15 09:12:03;;;;;;;15.85;14.23;;;31.10;72.70;;;;;;5048825;28;20480;-66
2021/07/15 09:14:52;;;;;;;14.70;13.38;;;31.10;72.80;;;;;;5048673;28;20403;-65
2021/07/15 09:17:30;;;;;;;15.60;14.15;;;31.10;72.80;;;;;;5048636;28;20085;-65
2021/07/15 09:19:56;;;;;;;14.85;13.45;;;31.10;72.70;;;;;;5048920;28;20417;-65
2021/07/15 09:22:22;;;;;;;12.20;11.20;;;31.10;72.80;;;;;;5048481;28;20100;-65
2021/07/15 09:24:48;;;;;;;16.65;14.07;;;31.10;73.00;;;;;;5048530;28;20055;-65
2021/07/15 09:27:25;;;;;;;15.82;14.35;;;31.10;72.80;;;;;;5048328;28;20053;-65
2021/07/15 09:30:10;;;;;;;14.85;13.45;;;31.10;72.70;;;;;;5048430;28;20517;-65
2021/07/15 09:32:55;;;;;;;12.85;11.70;;;31.10;72.80;;;;;;5048279;28;20053;-65
2021/07/15 09:35:37;;;;;;;15.05;13.63;;;31.10;73.00;;;;;;5048457;28;20093;-65
2021/07/15 09:38:10;;;;;;;15.90;14.27;;;31.10;73.10;;;;;;5048414;28;20524;-65
2021/07/15 09:40:41;;;;;;;14.45;13.05;;;31.10;72.90;;;;;;5048272;28;20437;-65
2021/07/15 09:43:26;;;;;;;14.75;13.40;;;31.10;73.80;;;;;;5048377;28;20053;-65
2021/07/15 09:45:55;;;;;;;14.43;12.60;;;31.10;72.80;;;;;;5048026;28;20057;-65
2021/07/15 09:48:27;;;;;;;13.05;11.75;;;31.10;73.00;;;;;;5048063;28;20144;-65
2021/07/15 09:50:56;;;;;;;14.35;13.02;;;31.10;73.10;;;;;;5048175;28;20132;-65
2021/07/15 09:53:28;;;;;;;14.43;13.07;;;31.10;73.20;;;;;;5048085;28;20049;-65
2021/07/15 09:56:02;;;;;;;;;;;31.10;73.00;;;;;;5048517;28;20106;-65
2021/07/15 09:58:35;;;;;;;15.23;13.82;;;31.20;72.90;;;;;;5048339;28;20372;-65
2021/07/15 10:01:09;;;;;;;14.65;13.15;;;31.10;72.80;;;;;;5048196;28;20469;-67
2021/07/15 10:03:55;;;;;;;14.45;13.02;;;31.20;72.90;;;;;;5047802;28;20065;-64
2021/07/15 10:06:21;;;;;;;14.45;13.05;;;31.10;72.90;;;;;;5048047;28;20114;-65
2021/07/15 10:08:56;;;;;;;14.48;13.27;;;31.20;73.00;;;;;;5047901;28;20056;-65
2021/07/15 10:11:30;;;;;;;14.05;12.82;;;31.10;72.80;;;;;;5047750;28;20136;-65
2021/07/15 10:14:07;;;;;;;15.20;13.77;;;31.10;72.80;;;;;;5047340;28;20053;-65
2021/07/15 10:16:39;;;;;;;14.27;13.00;;;31.10;72.90;;;;;;5048493;28;20060;-65
2021/07/15 10:19:06;;;;;;;13.90;12.45;;;31.20;72.90;;;;;;5048623;28;20501;-65
2021/07/15 10:21:35;;;;;;;13.48;12.20;;;31.20;73.00;;;;;;5048594;28;20072;-65
2021/07/15 10:24:25;;;;;;;14.80;13.45;;;31.10;73.00;;;;;;5048272;28;20135;-67
2021/07/15 10:26:54;;;;;;;14.90;13.55;;;31.20;73.00;;;;;;5047845;28;20473;-66
2021/07/15 10:29:21;;;;;;;13.82;12.43;;;31.20;72.90;;;;;;5047634;28;20148;-65
2021/07/15 10:31:50;;;;;;;14.63;13.13;;;31.20;73.10;;;;;;5047747;28;20064;-65
2021/07/15 10:34:16;;;;;;;14.15;13.02;;;31.20;73.00;;;;;;5047392;28;20064;-66
2021/07/15 10:36:43;;;;;;;14.93;13.27;;;31.20;72.90;;;;;;5047744;28;20140;-66
2021/07/15 10:39:13;;;;;;;13.35;12.23;;;31.20;72.90;;;;;;5047887;28;20451;-66
2021/07/15 10:41:43;;;;;;;14.63;13.30;;;31.20;73.10;;;;;;5047588;28;20057;-66
2021/07/15 10:44:09;;;;;;;13.55;12.20;;;31.20;73.00;;;;;;5047743;28;20153;-66
2021/07/15 10:46:37;;;;;;;13.15;12.02;;;31.20;73.00;;;;;;5047900;28;20053;-65
2021/07/15 10:49:07;;;;;;;14.73;13.20;;;31.20;73.10;;;;;;5049207;28;20049;-66
2021/07/15 10:51:38;;;;;;;13.55;12.35;;;31.20;73.00;;;;;;5051725;28;20148;-66
2021/07/15 10:54:05;;;;;;;13.88;12.63;;;31.20;73.00;;;;;;5051067;28;20091;-65
2021/07/15 10:56:32;;;;;;;14.63;13.23;;;31.20;73.00;;;;;;5051581;28;20126;-66
2021/07/15 10:58:58;;;;;;;14.38;13.23;;;31.20;73.00;;;;;;5051186;28;20627;-65
2021/07/15 11:01:35;;;;;;;15.55;14.00;;;31.30;73.00;;;;;;5051435;28;20433;-66
2021/07/15 11:04:05;;;;;;;12.70;11.50;;;31.20;72.90;;;;;;5050981;28;20512;-66
2021/07/15 11:06:42;;;;;;;12.82;11.77;;;31.20;73.20;;;;;;5051530;28;20053;-65
2021/07/15 11:09:11;;;;;;;13.95;12.75;;;31.20;73.10;;;;;;5051031;28;20179;-66
2021/07/15 11:11:43;;;;;;;13.40;12.20;;;31.20;73.10;;;;;;5051330;28;20057;-65
2021/07/15 11:14:37;;;;;;;14.20;12.95;;;31.20;73.10;;;;;;5051209;28;20539;-65
2021/07/15 11:17:25;;;;;;;14.52;13.15;;;31.20;73.10;;;;;;5051456;28;20080;-66
2021/07/15 11:20:02;;;;;;;13.98;12.55;;;31.30;73.00;;;;;;5050973;28;20143;-66
2021/07/15 11:22:37;;;;;;;13.68;12.48;;;31.20;73.00;;;;;;5050792;28;20057;-65
2021/07/15 11:25:32;;;;;;;13.38;12.18;;;31.20;73.00;;;;;;5051018;28;20135;-65
2021/07/15 11:28:00;;;;;;;14.32;13.02;;;31.20;73.20;;;;;;5051078;28;20484;-65
2021/07/15 11:30:37;;;;;;;15.43;14.02;;;31.20;73.10;;;;;;5050738;28;20076;-65
2021/07/15 11:33:21;;;;;;;14.18;12.80;;;31.20;72.90;;;;;;5051222;28;20056;-66
2021/07/15 11:36:04;;;;;;;15.35;13.88;;;31.20;72.90;;;;;;5050569;28;20088;-66
2021/07/15 11:38:36;;;;;;;14.55;13.05;;;31.20;73.00;;;;;;5050770;28;20475;-66
2021/07/15 11:41:03;;;;;;;;;;;31.20;73.00;;;;;;5050125;28;20097;-66
2021/07/15 11:43:33;;;;;;;14.70;13.43;;;31.30;73.00;;;;;;5050727;28;19920;-66
2021/07/15 11:46:09;;;;;;;15.35;13.85;;;31.30;73.00;;;;;;5050311;28;20060;-66
2021/07/15 11:49:01;;;;;;;14.63;13.18;;;31.20;72.90;;;;;;5050313;28;20099;-66
2021/07/15 11:51:34;;;;;;;13.82;12.68;;;31.20;73.00;;;;;;5050340;28;20610;-65
2021/07/15 11:54:23;;;;;;;14.73;13.25;;;31.20;73.00;;;;;;5050233;28;20096;-65
2021/07/15 11:56:58;;;;;;;15.70;12.38;;;31.30;73.00;;;;;;5050526;28;20195;-66
2021/07/15 11:59:53;;;;;;;14.88;13.60;;;31.30;73.10;;;;;;5050312;28;20140;-66
2021/07/15 12:02:39;;;;;;;15.18;13.68;;;31.20;73.00;;;;;;5049917;28;20060;-65
2021/07/15 12:05:20;;;;;;;14.10;12.90;;;31.20;72.90;;;;;;5049992;28;20167;-67
2021/07/15 12:07:47;;;;;;;14.32;12.88;;;31.20;73.00;;;;;;5050264;28;20148;-67
2021/07/15 12:10:25;;;;;;;14.80;13.25;;;31.30;73.00;;;;;;5049731;28;20131;-67
2021/07/15 12:12:53;;;;;;;14.35;13.00;;;31.30;73.10;;;;;;5050111;28;20049;-67
2021/07/15 12:15:24;;;;;;;15.15;13.75;;;31.30;73.10;;;;;;5049777;28;20148;-67
2021/07/15 12:17:55;;;;;;;14.52;13.32;;;31.30;73.00;;;;;;5050242;28;20065;-67
2021/07/15 12:20:24;;;;;;;14.17;12.80;;;31.30;73.00;;;;;;5048535;28;20572;-66
2021/07/15 12:22:57;;;;;;;15.00;13.70;;;31.30;73.00;;;;;;5049850;28;20056;-67
2021/07/15 12:25:25;;;;;;;14.35;13.05;;;31.30;73.00;;;;;;5049577;28;20140;-67
2021/07/15 12:27:55;;;;;;;13.93;12.73;;;31.30;73.10;;;;;;5049737;28;20053;-67
2021/07/15 12:30:23;;;;;;;14.13;12.88;;;31.30;73.00;;;;;;5049710;28;20492;-66
2021/07/15 12:32:58;;;;;;;14.85;13.45;;;31.30;73.00;;;;;;5049581;28;20143;-66
2021/07/15 12:35:29;;;;;;;15.90;13.30;;;31.30;73.00;;;;;;5049567;28;20224;-67
2021/07/15 12:37:58;;;;;;;14.55;13.23;;;31.30;73.00;;;;;;5049417;28;20546;-66
2021/07/15 12:40:26;;;;;;;15.07;13.75;;;31.30;73.00;;;;;;5049665;28;20057;-66
2021/07/15 12:42:52;;;;;;;13.68;12.48;;;31.30;73.00;;;;;;5048038;28;20063;-67
2021/07/15 12:45:20;;;;;;;14.90;13.40;;;31.30;73.00;;;;;;5049469;28;20056;-65